KCGF/CGF METAR and TAF weather

Enter ICAO airport designator
Station Type Date Time Source
KCGF METAR 2018/07/20 13:45 UTC NOAA

KCGF 201345Z 17012KT 15SM FEW070 SCT200 26/18 A2995


Station Type Date Time Source
KCGF Decoded METAR 2018/07/20 13:45 UTC NOAA

Cleveland / Cuyahoga, OH, United States (KCGF) 41-34N 081-29W
Jul 20, 2018 - 09:45 AM EDT / 2018.07.20 1345 UTC
Wind: from the S (170 degrees) at 14 MPH (12 KT):0
Visibility: 15 mile(s):0
Sky conditions: partly cloudy
Temperature: 78 F (26 C)
Dew Point: 64 F (18 C)
Relative Humidity: 61%
Pressure (altimeter): 29.95 in. Hg (1014 hPa)
ob: KCGF 201345Z 17012KT 15SM FEW070 SCT200 26/18 A2995
cycle: 14

Station Type Date Time Source
KCGF TAF 2016/07/19 12:36 UTC NOAA

TAF KCGF 191136Z 1912/2012 VRB05KT P6SM SCT080
FM191400 33008KT P6SM SCT040
FM191900 35008KT P6SM SCT060
FM200000 04003KT P6SM SCT080
FM200700 14003KT P6SM SKC


Example: see airport list